sensor_id;sensor_type;location;lat;lon;timestamp;pressure;altitude;pressure_sealevel;temperature;humidity
51195;BME280;37259;49.972;19.850;2023-04-24T00:00:41;97870;;;10.1;59.4
51195;BME280;37259;49.972;19.850;2023-04-24T00:01:41;97870;;;10;59.3
51195;BME280;37259;49.972;19.850;2023-04-24T00:02:41;97870;;;10;59.3
51195;BME280;37259;49.972;19.850;2023-04-24T00:03:41;97870;;;10;59.3
51195;BME280;37259;49.972;19.850;2023-04-24T00:04:41;97870;;;10;59.7
51195;BME280;37259;49.972;19.850;2023-04-24T00:05:41;97870;;;10;59.7
51195;BME280;37259;49.972;19.850;2023-04-24T00:06:41;97870;;;10;60.1
51195;BME280;37259;49.972;19.850;2023-04-24T00:07:41;97870;;;10;60.1
51195;BME280;37259;49.972;19.850;2023-04-24T00:08:41;97860;;;10;60.2
51195;BME280;37259;49.972;19.850;2023-04-24T00:09:41;97860;;;10;60.1
51195;BME280;37259;49.972;19.850;2023-04-24T00:10:41;97860;;;10;60
51195;BME280;37259;49.972;19.850;2023-04-24T00:11:41;97860;;;10;60
51195;BME280;37259;49.972;19.850;2023-04-24T00:12:41;97860;;;10;60.1
51195;BME280;37259;49.972;19.850;2023-04-24T00:13:41;97860;;;10;60.4
51195;BME280;37259;49.972;19.850;2023-04-24T00:14:41;97860;;;10;60.2
51195;BME280;37259;49.972;19.850;2023-04-24T00:15:41;97860;;;10;60.2
51195;BME280;37259;49.972;19.850;2023-04-24T00:16:41;97870;;;10;59.9
51195;BME280;37259;49.972;19.850;2023-04-24T00:17:41;97870;;;10;59.9
51195;BME280;37259;49.972;19.850;2023-04-24T00:18:41;97870;;;9.9;59.8
51195;BME280;37259;49.972;19.850;2023-04-24T00:19:41;97870;;;9.9;59.8
51195;BME280;37259;49.972;19.850;2023-04-24T00:20:41;97860;;;9.8;59.7
51195;BME280;37259;49.972;19.850;2023-04-24T00:21:41;97860;;;9.8;59.7
51195;BME280;37259;49.972;19.850;2023-04-24T00:22:41;97860;;;9.7;59.9
51195;BME280;37259;49.972;19.850;2023-04-24T00:23:41;97860;;;9.7;60.1
51195;BME280;37259;49.972;19.850;2023-04-24T00:24:41;97860;;;9.7;60.1
51195;BME280;37259;49.972;19.850;2023-04-24T00:25:41;97860;;;9.6;60.2
51195;BME280;37259;49.972;19.850;2023-04-24T00:26:41;97860;;;9.6;60.2
51195;BME280;37259;49.972;19.850;2023-04-24T00:27:41;97860;;;9.6;61.1
51195;BME280;37259;49.972;19.850;2023-04-24T00:28:41;97860;;;9.6;61.3
51195;BME280;37259;49.972;19.850;2023-04-24T00:29:41;97860;;;9.5;61.2
51195;BME280;37259;49.972;19.850;2023-04-24T00:30:41;97860;;;9.5;61
51195;BME280;37259;49.972;19.850;2023-04-24T00:31:41;97860;;;9.5;61
51195;BME280;37259;49.972;19.850;2023-04-24T00:32:41;97860;;;9.5;61
51195;BME280;37259;49.972;19.850;2023-04-24T00:33:41;97860;;;9.4;61.2
51195;BME280;37259;49.972;19.850;2023-04-24T00:34:41;97860;;;9.4;61.4
51195;BME280;37259;49.972;19.850;2023-04-24T00:35:41;97860;;;9.4;61.4
51195;BME280;37259;49.972;19.850;2023-04-24T00:36:41;97860;;;9.3;61.4
51195;BME280;37259;49.972;19.850;2023-04-24T00:37:41;97860;;;9.3;61.4
51195;BME280;37259;49.972;19.850;2023-04-24T00:38:41;97850;;;9.2;61.5
51195;BME280;37259;49.972;19.850;2023-04-24T00:39:41;97850;;;9.2;62.7
51195;BME280;37259;49.972;19.850;2023-04-24T00:40:41;97850;;;9.2;63.1
51195;BME280;37259;49.972;19.850;2023-04-24T00:41:41;97850;;;9.2;63.1
51195;BME280;37259;49.972;19.850;2023-04-24T00:42:41;97850;;;9.2;63.7
51195;BME280;37259;49.972;19.850;2023-04-24T00:43:41;97850;;;9.2;63.7
51195;BME280;37259;49.972;19.850;2023-04-24T00:44:41;97850;;;9.2;63.5
51195;BME280;37259;49.972;19.850;2023-04-24T00:45:41;97850;;;9.2;63.5
51195;BME280;37259;49.972;19.850;2023-04-24T00:46:41;97850;;;9.2;63.5
51195;BME280;37259;49.972;19.850;2023-04-24T00:47:41;97850;;;9.2;63
51195;BME280;37259;49.972;19.850;2023-04-24T00:48:41;97850;;;9.2;63
51195;BME280;37259;49.972;19.850;2023-04-24T00:49:41;97840;;;9.2;62.4
51195;BME280;37259;49.972;19.850;2023-04-24T00:50:41;97840;;;9.1;62.4
51195;BME280;37259;49.972;19.850;2023-04-24T00:51:41;97840;;;9.1;62
51195;BME280;37259;49.972;19.850;2023-04-24T00:52:41;97840;;;9.1;61.9
51195;BME280;37259;49.972;19.850;2023-04-24T00:53:41;97840;;;9;61.9
51195;BME280;37259;49.972;19.850;2023-04-24T00:54:41;97840;;;9;61.8
51195;BME280;37259;49.972;19.850;2023-04-24T00:55:41;97840;;;9;61.8
51195;BME280;37259;49.972;19.850;2023-04-24T00:56:42;97840;;;8.9;61.7
51195;BME280;37259;49.972;19.850;2023-04-24T00:57:41;97840;;;8.9;61.9
51195;BME280;37259;49.972;19.850;2023-04-24T00:58:41;97830;;;8.8;61.9
51195;BME280;37259;49.972;19.850;2023-04-24T00:59:41;97830;;;8.8;62
51195;BME280;37259;49.972;19.850;2023-04-24T01:00:41;97830;;;8.8;62
51195;BME280;37259;49.972;19.850;2023-04-24T01:01:41;97830;;;8.8;62
51195;BME280;37259;49.972;19.850;2023-04-24T01:02:42;97830;;;8.7;62.2
51195;BME280;37259;49.972;19.850;2023-04-24T01:03:41;97830;;;8.7;62.2
51195;BME280;37259;49.972;19.850;2023-04-24T01:04:41;97830;;;8.7;62.3
51195;BME280;37259;49.972;19.850;2023-04-24T01:05:41;97820;;;8.6;62.4
51195;BME280;37259;49.972;19.850;2023-04-24T01:06:41;97830;;;8.6;62.4
51195;BME280;37259;49.972;19.850;2023-04-24T01:07:43;97830;;;8.6;62.4
51195;BME280;37259;49.972;19.850;2023-04-24T01:08:41;97820;;;8.5;62.6
51195;BME280;37259;49.972;19.850;2023-04-24T01:09:41;97820;;;8.5;62.8
51195;BME280;37259;49.972;19.850;2023-04-24T01:10:41;97820;;;8.5;62.8
51195;BME280;37259;49.972;19.850;2023-04-24T01:11:41;97820;;;8.5;63.5
51195;BME280;37259;49.972;19.850;2023-04-24T01:12:41;97820;;;8.5;63.8
51195;BME280;37259;49.972;19.850;2023-04-24T01:13:41;97820;;;8.5;63.8
51195;BME280;37259;49.972;19.850;2023-04-24T01:14:41;97820;;;8.5;64.6
51195;BME280;37259;49.972;19.850;2023-04-24T01:15:41;97820;;;8.5;64.3
51195;BME280;37259;49.972;19.850;2023-04-24T01:16:41;97820;;;8.5;64.7
51195;BME280;37259;49.972;19.850;2023-04-24T01:17:41;97820;;;8.5;64.5
51195;BME280;37259;49.972;19.850;2023-04-24T01:18:41;97820;;;8.5;64.5
51195;BME280;37259;49.972;19.850;2023-04-24T01:19:41;97820;;;8.5;64.7
51195;BME280;37259;49.972;19.850;2023-04-24T01:20:42;97820;;;8.5;64.7
51195;BME280;37259;49.972;19.850;2023-04-24T01:21:41;97820;;;8.6;64.5
51195;BME280;37259;49.972;19.850;2023-04-24T01:22:42;97820;;;8.6;64.3
51195;BME280;37259;49.972;19.850;2023-04-24T01:23:41;97820;;;8.6;64.3
51195;BME280;37259;49.972;19.850;2023-04-24T01:24:41;97810;;;8.6;64.5
51195;BME280;37259;49.972;19.850;2023-04-24T01:25:41;97810;;;8.6;64.4
51195;BME280;37259;49.972;19.850;2023-04-24T01:26:41;97810;;;8.6;64.3
51195;BME280;37259;49.972;19.850;2023-04-24T01:27:41;97810;;;8.6;64.3
51195;BME280;37259;49.972;19.850;2023-04-24T01:28:41;97810;;;8.6;64.5
51195;BME280;37259;49.972;19.850;2023-04-24T01:29:41;97810;;;8.7;64.5
51195;BME280;37259;49.972;19.850;2023-04-24T01:30:41;97810;;;8.7;64.2
51195;BME280;37259;49.972;19.850;2023-04-24T01:31:41;97810;;;8.7;64
51195;BME280;37259;49.972;19.850;2023-04-24T01:32:41;97810;;;8.7;64
51195;BME280;37259;49.972;19.850;2023-04-24T01:33:41;97810;;;8.7;64.1
51195;BME280;37259;49.972;19.850;2023-04-24T01:34:41;97810;;;8.7;64.1
51195;BME280;37259;49.972;19.850;2023-04-24T01:35:41;97800;;;8.7;64
51195;BME280;37259;49.972;19.850;2023-04-24T01:36:41;97800;;;8.7;64
51195;BME280;37259;49.972;19.850;2023-04-24T01:37:41;97800;;;8.7;64
51195;BME280;37259;49.972;19.850;2023-04-24T01:38:41;97800;;;8.7;63.6
51195;BME280;37259;49.972;19.850;2023-04-24T01:39:41;97800;;;8.7;63.6
51195;BME280;37259;49.972;19.850;2023-04-24T01:40:41;97800;;;8.7;63.4
51195;BME280;37259;49.972;19.850;2023-04-24T01:41:41;97800;;;8.7;63.4
51195;BME280;37259;49.972;19.850;2023-04-24T01:42:41;97800;;;8.7;63.3
51195;BME280;37259;49.972;19.850;2023-04-24T01:43:41;97790;;;8.7;63.5
51195;BME280;37259;49.972;19.850;2023-04-24T01:44:41;97800;;;8.8;63.5
51195;BME280;37259;49.972;19.850;2023-04-24T01:45:41;97800;;;8.8;63.9
51195;BME280;37259;49.972;19.850;2023-04-24T01:46:41;97800;;;8.8;63.9
51195;BME280;37259;49.972;19.850;2023-04-24T01:47:41;97790;;;8.8;63.6
51195;BME280;37259;49.972;19.850;2023-04-24T01:48:41;97790;;;8.8;63.6
51195;BME280;37259;49.972;19.850;2023-04-24T01:49:41;97790;;;8.9;63.6
51195;BME280;37259;49.972;19.850;2023-04-24T01:50:41;97790;;;8.9;63.6
51195;BME280;37259;49.972;19.850;2023-04-24T01:51:41;97790;;;8.9;63.8
51195;BME280;37259;49.972;19.850;2023-04-24T01:52:41;97790;;;8.9;63.8
51195;BME280;37259;49.972;19.850;2023-04-24T01:53:41;97780;;;8.9;64
51195;BME280;37259;49.972;19.850;2023-04-24T01:54:41;97780;;;8.9;64
51195;BME280;37259;49.972;19.850;2023-04-24T01:55:41;97780;;;9.1;63.8
51195;BME280;37259;49.972;19.850;2023-04-24T01:56:42;97780;;;9.1;63.5
51195;BME280;37259;49.972;19.850;2023-04-24T01:57:41;97780;;;9.1;63.5
51195;BME280;37259;49.972;19.850;2023-04-24T01:58:41;97780;;;9.1;63.3
51195;BME280;37259;49.972;19.850;2023-04-24T01:59:42;97780;;;9.2;63.6
51195;BME280;37259;49.972;19.850;2023-04-24T02:00:41;97780;;;9.2;63.6
51195;BME280;37259;49.972;19.850;2023-04-24T02:01:41;97780;;;9.3;63.3
51195;BME280;37259;49.972;19.850;2023-04-24T02:02:41;97770;;;9.4;63.2
51195;BME280;37259;49.972;19.850;2023-04-24T02:03:41;97770;;;9.4;62.9
51195;BME280;37259;49.972;19.850;2023-04-24T02:04:41;97770;;;9.4;62.9
51195;BME280;37259;49.972;19.850;2023-04-24T02:05:43;97770;;;9.4;62.8
51195;BME280;37259;49.972;19.850;2023-04-24T02:06:41;97770;;;9.4;62.6
51195;BME280;37259;49.972;19.850;2023-04-24T02:07:41;97770;;;9.4;62.6
51195;BME280;37259;49.972;19.850;2023-04-24T02:08:41;97770;;;9.3;62.5
51195;BME280;37259;49.972;19.850;2023-04-24T02:09:42;97770;;;9.3;62.5
51195;BME280;37259;49.972;19.850;2023-04-24T02:10:41;97770;;;9.3;62.5
51195;BME280;37259;49.972;19.850;2023-04-24T02:11:41;97760;;;9.3;62.6
51195;BME280;37259;49.972;19.850;2023-04-24T02:12:41;97760;;;9.3;62.6
51195;BME280;37259;49.972;19.850;2023-04-24T02:13:41;97760;;;9.3;62.6
51195;BME280;37259;49.972;19.850;2023-04-24T02:14:41;97760;;;9.3;62.6
51195;BME280;37259;49.972;19.850;2023-04-24T02:15:41;97760;;;9.3;62.6
51195;BME280;37259;49.972;19.850;2023-04-24T02:16:42;97760;;;9.3;62.5
51195;BME280;37259;49.972;19.850;2023-04-24T02:17:41;97760;;;9.3;62.5
51195;BME280;37259;49.972;19.850;2023-04-24T02:18:42;97760;;;9.2;62.2
51195;BME280;37259;49.972;19.850;2023-04-24T02:19:41;97760;;;9.2;62.2
51195;BME280;37259;49.972;19.850;2023-04-24T02:20:41;97760;;;9.2;62.2
51195;BME280;37259;49.972;19.850;2023-04-24T02:21:41;97760;;;9.2;62
51195;BME280;37259;49.972;19.850;2023-04-24T02:22:41;97760;;;9.2;62
51195;BME280;37259;49.972;19.850;2023-04-24T02:23:41;97760;;;9.2;61.9
51195;BME280;37259;49.972;19.850;2023-04-24T02:24:41;97760;;;9.2;61.9
51195;BME280;37259;49.972;19.850;2023-04-24T02:25:41;97750;;;9.1;61.9
51195;BME280;37259;49.972;19.850;2023-04-24T02:26:41;97750;;;9.1;61.8
51195;BME280;37259;49.972;19.850;2023-04-24T02:27:42;97750;;;9.1;61.8
51195;BME280;37259;49.972;19.850;2023-04-24T02:28:41;97750;;;9.1;61.8
51195;BME280;37259;49.972;19.850;2023-04-24T02:29:41;97750;;;9.1;61.8
51195;BME280;37259;49.972;19.850;2023-04-24T02:30:41;97740;;;9.1;61.8
51195;BME280;37259;49.972;19.850;2023-04-24T02:31:41;97740;;;9.1;61.8
51195;BME280;37259;49.972;19.850;2023-04-24T02:32:41;97740;;;9.1;61.9
51195;BME280;37259;49.972;19.850;2023-04-24T02:33:42;97740;;;9.1;61.9
51195;BME280;37259;49.972;19.850;2023-04-24T02:34:41;97740;;;9.1;62.1
51195;BME280;37259;49.972;19.850;2023-04-24T02:35:41;97740;;;9.1;62.1
51195;BME280;37259;49.972;19.850;2023-04-24T02:36:41;97740;;;9.1;62.4
51195;BME280;37259;49.972;19.850;2023-04-24T02:37:41;97730;;;9.2;62.4
51195;BME280;37259;49.972;19.850;2023-04-24T02:38:41;97730;;;9.2;62.4
51195;BME280;37259;49.972;19.850;2023-04-24T02:39:41;97730;;;9.2;62.4
51195;BME280;37259;49.972;19.850;2023-04-24T02:40:41;97730;;;9.2;62.4
51195;BME280;37259;49.972;19.850;2023-04-24T02:41:41;97730;;;9.3;62.5
51195;BME280;37259;49.972;19.850;2023-04-24T02:42:42;97720;;;9.3;62.3
51195;BME280;37259;49.972;19.850;2023-04-24T02:43:41;97720;;;9.3;62.3
51195;BME280;37259;49.972;19.850;2023-04-24T02:44:41;97720;;;9.3;62.3
51195;BME280;37259;49.972;19.850;2023-04-24T02:45:41;97720;;;9.4;62.2
51195;BME280;37259;49.972;19.850;2023-04-24T02:46:41;97720;;;9.4;62.2
51195;BME280;37259;49.972;19.850;2023-04-24T02:47:41;97720;;;9.4;62
51195;BME280;37259;49.972;19.850;2023-04-24T02:48:41;97720;;;9.4;61.9
51195;BME280;37259;49.972;19.850;2023-04-24T02:49:41;97720;;;9.4;61.9
51195;BME280;37259;49.972;19.850;2023-04-24T02:50:41;97720;;;9.4;62.1
51195;BME280;37259;49.972;19.850;2023-04-24T02:51:41;97720;;;9.4;62
51195;BME280;37259;49.972;19.850;2023-04-24T02:52:41;97720;;;9.4;61.9
51195;BME280;37259;49.972;19.850;2023-04-24T02:53:41;97720;;;9.4;61.9
51195;BME280;37259;49.972;19.850;2023-04-24T02:54:41;97720;;;9.4;61.9
51195;BME280;37259;49.972;19.850;2023-04-24T02:55:41;97720;;;9.4;61.9
51195;BME280;37259;49.972;19.850;2023-04-24T02:56:41;97720;;;9.4;61.8
51195;BME280;37259;49.972;19.850;2023-04-24T02:57:41;97720;;;9.4;61.8
51195;BME280;37259;49.972;19.850;2023-04-24T02:58:41;97710;;;9.4;61.7
51195;BME280;37259;49.972;19.850;2023-04-24T02:59:41;97710;;;9.4;61.7
51195;BME280;37259;49.972;19.850;2023-04-24T03:00:41;97710;;;9.3;61.5
51195;BME280;37259;49.972;19.850;2023-04-24T03:01:41;97710;;;9.3;61.5
51195;BME280;37259;49.972;19.850;2023-04-24T03:02:41;97710;;;9.3;61.4
51195;BME280;37259;49.972;19.850;2023-04-24T03:03:41;97720;;;9.3;61.4
51195;BME280;37259;49.972;19.850;2023-04-24T03:04:41;97720;;;9.2;61.7
51195;BME280;37259;49.972;19.850;2023-04-24T03:05:42;97720;;;9.2;61.7
51195;BME280;37259;49.972;19.850;2023-04-24T03:06:41;97720;;;9.2;61.8
51195;BME280;37259;49.972;19.850;2023-04-24T03:07:41;97720;;;9.2;61.8
51195;BME280;37259;49.972;19.850;2023-04-24T03:08:41;97720;;;9.2;61.8
51195;BME280;37259;49.972;19.850;2023-04-24T03:09:41;97720;;;9.2;62
51195;BME280;37259;49.972;19.850;2023-04-24T03:10:41;97720;;;9.2;61.9
51195;BME280;37259;49.972;19.850;2023-04-24T03:11:41;97720;;;9.1;61.9
51195;BME280;37259;49.972;19.850;2023-04-24T03:12:41;97720;;;9.1;61.9
51195;BME280;37259;49.972;19.850;2023-04-24T03:13:41;97720;;;9.1;61.9
51195;BME280;37259;49.972;19.850;2023-04-24T03:14:42;97720;;;9;61.8
51195;BME280;37259;49.972;19.850;2023-04-24T03:15:41;97720;;;9;61.8
51195;BME280;37259;49.972;19.850;2023-04-24T03:16:41;97720;;;9;61.8
51195;BME280;37259;49.972;19.850;2023-04-24T03:17:41;97720;;;9;61.8
51195;BME280;37259;49.972;19.850;2023-04-24T03:18:41;97720;;;9;62
51195;BME280;37259;49.972;19.850;2023-04-24T03:19:41;97720;;;8.9;62
51195;BME280;37259;49.972;19.850;2023-04-24T03:20:41;97720;;;8.9;62.1
51195;BME280;37259;49.972;19.850;2023-04-24T03:21:41;97720;;;8.9;62.1
51195;BME280;37259;49.972;19.850;2023-04-24T03:22:42;97720;;;8.9;62
51195;BME280;37259;49.972;19.850;2023-04-24T03:23:41;97720;;;8.9;62
51195;BME280;37259;49.972;19.850;2023-04-24T03:24:41;97720;;;8.8;62.4
51195;BME280;37259;49.972;19.850;2023-04-24T03:25:41;97720;;;8.8;62.4
51195;BME280;37259;49.972;19.850;2023-04-24T03:26:41;97720;;;8.8;62.4
51195;BME280;37259;49.972;19.850;2023-04-24T03:27:41;97720;;;8.8;62.3
51195;BME280;37259;49.972;19.850;2023-04-24T03:28:41;97720;;;8.8;62.4
51195;BME280;37259;49.972;19.850;2023-04-24T03:29:41;97720;;;8.8;62.7
51195;BME280;37259;49.972;19.850;2023-04-24T03:30:41;97720;;;8.7;63
51195;BME280;37259;49.972;19.850;2023-04-24T03:31:42;97720;;;8.7;63.2
51195;BME280;37259;49.972;19.850;2023-04-24T03:32:41;97720;;;8.7;63.1
51195;BME280;37259;49.972;19.850;2023-04-24T03:33:41;97720;;;8.7;63.1
51195;BME280;37259;49.972;19.850;2023-04-24T03:34:41;97720;;;8.7;63.1
51195;BME280;37259;49.972;19.850;2023-04-24T03:35:41;97720;;;8.8;63.8
51195;BME280;37259;49.972;19.850;2023-04-24T03:36:41;97720;;;8.8;63.8
51195;BME280;37259;49.972;19.850;2023-04-24T03:37:41;97720;;;8.8;63.5
51195;BME280;37259;49.972;19.850;2023-04-24T03:38:41;97720;;;8.9;63.3
51195;BME280;37259;49.972;19.850;2023-04-24T03:39:42;97720;;;8.9;63.3
51195;BME280;37259;49.972;19.850;2023-04-24T03:40:41;97720;;;8.9;63.3
51195;BME280;37259;49.972;19.850;2023-04-24T03:41:41;97720;;;9;63.1
51195;BME280;37259;49.972;19.850;2023-04-24T03:42:41;97720;;;9;62.9
51195;BME280;37259;49.972;19.850;2023-04-24T03:43:41;97720;;;9;62.9
51195;BME280;37259;49.972;19.850;2023-04-24T03:44:41;97720;;;9;62.5
51195;BME280;37259;49.972;19.850;2023-04-24T03:45:41;97720;;;9;62.5
51195;BME280;37259;49.972;19.850;2023-04-24T03:46:41;97720;;;9;62.3
51195;BME280;37259;49.972;19.850;2023-04-24T03:47:41;97720;;;9;62.2
51195;BME280;37259;49.972;19.850;2023-04-24T03:48:41;97720;;;9.1;62.1
51195;BME280;37259;49.972;19.850;2023-04-24T03:49:41;97720;;;9.1;62.1
51195;BME280;37259;49.972;19.850;2023-04-24T03:50:41;97720;;;9.1;62
51195;BME280;37259;49.972;19.850;2023-04-24T03:51:41;97720;;;9.1;62
51195;BME280;37259;49.972;19.850;2023-04-24T03:52:41;97720;;;9.1;61.9
51195;BME280;37259;49.972;19.850;2023-04-24T03:53:41;97720;;;9.1;61.9
51195;BME280;37259;49.972;19.850;2023-04-24T03:54:41;97720;;;9.1;61.9
51195;BME280;37259;49.972;19.850;2023-04-24T03:55:41;97720;;;9.2;61.8
51195;BME280;37259;49.972;19.850;2023-04-24T03:56:41;97720;;;9.2;61.8
51195;BME280;37259;49.972;19.850;2023-04-24T03:57:41;97720;;;9.2;61.6
51195;BME280;37259;49.972;19.850;2023-04-24T03:58:41;97720;;;9.2;61.5
51195;BME280;37259;49.972;19.850;2023-04-24T03:59:41;97720;;;9.2;61.5
51195;BME280;37259;49.972;19.850;2023-04-24T04:00:41;97720;;;9.2;61.4
51195;BME280;37259;49.972;19.850;2023-04-24T04:01:41;97720;;;9.2;61.4
51195;BME280;37259;49.972;19.850;2023-04-24T04:02:41;97720;;;9.3;61.3
51195;BME280;37259;49.972;19.850;2023-04-24T04:03:41;97720;;;9.3;61.3
51195;BME280;37259;49.972;19.850;2023-04-24T04:04:41;97720;;;9.3;61.2
51195;BME280;37259;49.972;19.850;2023-04-24T04:05:41;97720;;;9.3;61.2
51195;BME280;37259;49.972;19.850;2023-04-24T04:06:41;97720;;;9.3;61.1
51195;BME280;37259;49.972;19.850;2023-04-24T04:07:41;97720;;;9.4;61
51195;BME280;37259;49.972;19.850;2023-04-24T04:08:41;97720;;;9.4;61
51195;BME280;37259;49.972;19.850;2023-04-24T04:09:41;97720;;;9.4;61
51195;BME280;37259;49.972;19.850;2023-04-24T04:10:41;97720;;;9.4;60.9
51195;BME280;37259;49.972;19.850;2023-04-24T04:11:41;97720;;;9.5;61
51195;BME280;37259;49.972;19.850;2023-04-24T04:12:41;97720;;;9.5;61
51195;BME280;37259;49.972;19.850;2023-04-24T04:13:41;97720;;;9.5;60.9
51195;BME280;37259;49.972;19.850;2023-04-24T04:14:41;97720;;;9.5;60.9
51195;BME280;37259;49.972;19.850;2023-04-24T04:15:41;97720;;;9.5;60.8
51195;BME280;37259;49.972;19.850;2023-04-24T04:16:41;97720;;;9.5;60.7
51195;BME280;37259;49.972;19.850;2023-04-24T04:17:41;97720;;;9.5;60.7
51195;BME280;37259;49.972;19.850;2023-04-24T04:18:41;97720;;;9.6;60.7
51195;BME280;37259;49.972;19.850;2023-04-24T04:19:41;97720;;;9.6;60.7
51195;BME280;37259;49.972;19.850;2023-04-24T04:20:41;97720;;;9.6;60.8
51195;BME280;37259;49.972;19.850;2023-04-24T04:21:41;97720;;;9.6;60.8
51195;BME280;37259;49.972;19.850;2023-04-24T04:22:41;97720;;;9.7;60.8
51195;BME280;37259;49.972;19.850;2023-04-24T04:23:41;97720;;;9.7;60.9
51195;BME280;37259;49.972;19.850;2023-04-24T04:24:41;97720;;;9.7;60.9
51195;BME280;37259;49.972;19.850;2023-04-24T04:25:41;97720;;;9.7;60.8
51195;BME280;37259;49.972;19.850;2023-04-24T04:26:41;97720;;;9.8;60.8
51195;BME280;37259;49.972;19.850;2023-04-24T04:27:41;97720;;;9.8;60.8
51195;BME280;37259;49.972;19.850;2023-04-24T04:28:41;97720;;;9.8;60.8
51195;BME280;37259;49.972;19.850;2023-04-24T04:29:41;97720;;;9.8;60.7
51195;BME280;37259;49.972;19.850;2023-04-24T04:30:41;97720;;;9.8;60.7
51195;BME280;37259;49.972;19.850;2023-04-24T04:31:41;97720;;;9.9;60.5
51195;BME280;37259;49.972;19.850;2023-04-24T04:32:41;97720;;;9.9;60.5
51195;BME280;37259;49.972;19.850;2023-04-24T04:33:42;97720;;;9.9;60.3
51195;BME280;37259;49.972;19.850;2023-04-24T04:34:41;97720;;;9.9;60.3
51195;BME280;37259;49.972;19.850;2023-04-24T04:35:41;97720;;;10;60.1
51195;BME280;37259;49.972;19.850;2023-04-24T04:36:41;97720;;;10;60.1
51195;BME280;37259;49.972;19.850;2023-04-24T04:37:41;97730;;;10;59.9
51195;BME280;37259;49.972;19.850;2023-04-24T04:38:41;97730;;;10.1;59.8
51195;BME280;37259;49.972;19.850;2023-04-24T04:39:41;97730;;;10.1;59.8
51195;BME280;37259;49.972;19.850;2023-04-24T04:40:41;97730;;;10.1;60
51195;BME280;37259;49.972;19.850;2023-04-24T04:41:41;97730;;;10.1;60
51195;BME280;37259;49.972;19.850;2023-04-24T04:42:41;97730;;;10.2;60.1
51195;BME280;37259;49.972;19.850;2023-04-24T04:43:41;97730;;;10.2;60.3
51195;BME280;37259;49.972;19.850;2023-04-24T04:44:41;97730;;;10.2;60.3
51195;BME280;37259;49.972;19.850;2023-04-24T04:45:41;97720;;;10.3;61.2
51195;BME280;37259;49.972;19.850;2023-04-24T04:46:41;97720;;;10.3;61.2
51195;BME280;37259;49.972;19.850;2023-04-24T04:47:41;97730;;;10.3;61.5
51195;BME280;37259;49.972;19.850;2023-04-24T04:48:41;97730;;;10.4;61.5
51195;BME280;37259;49.972;19.850;2023-04-24T04:49:41;97730;;;10.4;61.5
51195;BME280;37259;49.972;19.850;2023-04-24T04:50:41;97730;;;10.4;61.5
51195;BME280;37259;49.972;19.850;2023-04-24T04:51:41;97730;;;10.4;61.5
51195;BME280;37259;49.972;19.850;2023-04-24T04:52:41;97720;;;10.5;62
51195;BME280;37259;49.972;19.850;2023-04-24T04:53:41;97720;;;10.5;62
51195;BME280;37259;49.972;19.850;2023-04-24T04:54:41;97720;;;10.5;62.2
51195;BME280;37259;49.972;19.850;2023-04-24T04:55:41;97720;;;10.6;62.5
51195;BME280;37259;49.972;19.850;2023-04-24T04:56:41;97720;;;10.6;62.5
51195;BME280;37259;49.972;19.850;2023-04-24T04:57:41;97720;;;10.6;62.2
51195;BME280;37259;49.972;19.850;2023-04-24T04:58:41;97720;;;10.7;62
51195;BME280;37259;49.972;19.850;2023-04-24T04:59:41;97720;;;10.7;61.8
51195;BME280;37259;49.972;19.850;2023-04-24T05:00:41;97720;;;10.7;61.8
51195;BME280;37259;49.972;19.850;2023-04-24T05:01:41;97720;;;10.8;61.5
51195;BME280;37259;49.972;19.850;2023-04-24T05:02:41;97720;;;10.8;61.4
51195;BME280;37259;49.972;19.850;2023-04-24T05:03:41;97720;;;10.8;61.4
51195;BME280;37259;49.972;19.850;2023-04-24T05:04:41;97720;;;10.9;61.4
51195;BME280;37259;49.972;19.850;2023-04-24T05:05:41;97720;;;10.9;61.4
51195;BME280;37259;49.972;19.850;2023-04-24T05:06:41;97720;;;10.9;61.4
51195;BME280;37259;49.972;19.850;2023-04-24T05:07:41;97720;;;11;61.6
51195;BME280;37259;49.972;19.850;2023-04-24T05:08:41;97720;;;11;61.9
51195;BME280;37259;49.972;19.850;2023-04-24T05:09:41;97720;;;11.1;61.9
51195;BME280;37259;49.972;19.850;2023-04-24T05:10:41;97720;;;11.2;62.2
51195;BME280;37259;49.972;19.850;2023-04-24T05:11:41;97720;;;11.2;62.3
51195;BME280;37259;49.972;19.850;2023-04-24T05:12:41;97720;;;11.3;62.3
51195;BME280;37259;49.972;19.850;2023-04-24T05:13:41;97720;;;11.3;62.3
51195;BME280;37259;49.972;19.850;2023-04-24T05:14:41;97710;;;11.3;61.8
51195;BME280;37259;49.972;19.850;2023-04-24T05:15:41;97710;;;11.3;61.8
51195;BME280;37259;49.972;19.850;2023-04-24T05:16:41;97710;;;11.4;61.6
51195;BME280;37259;49.972;19.850;2023-04-24T05:17:42;97710;;;11.5;61.6
51195;BME280;37259;49.972;19.850;2023-04-24T05:18:41;97710;;;11.5;61.6
51195;BME280;37259;49.972;19.850;2023-04-24T05:19:41;97710;;;11.6;61.5
51195;BME280;37259;49.972;19.850;2023-04-24T05:20:41;97710;;;11.6;61.5
51195;BME280;37259;49.972;19.850;2023-04-24T05:21:41;97710;;;11.7;61.3
51195;BME280;37259;49.972;19.850;2023-04-24T05:22:41;97710;;;11.7;61.3
51195;BME280;37259;49.972;19.850;2023-04-24T05:23:41;97710;;;11.8;60.8
51195;BME280;37259;49.972;19.850;2023-04-24T05:24:41;97710;;;11.8;60.7
51195;BME280;37259;49.972;19.850;2023-04-24T05:25:41;97710;;;11.9;60.5
51195;BME280;37259;49.972;19.850;2023-04-24T05:26:41;97710;;;11.9;60.5
51195;BME280;37259;49.972;19.850;2023-04-24T05:27:41;97710;;;12;60.5
51195;BME280;37259;49.972;19.850;2023-04-24T05:28:41;97710;;;12;60.5
51195;BME280;37259;49.972;19.850;2023-04-24T05:29:41;97710;;;12.1;60.4
51195;BME280;37259;49.972;19.850;2023-04-24T05:30:41;97710;;;12.1;60.5
51195;BME280;37259;49.972;19.850;2023-04-24T05:31:41;97710;;;12.1;60.5
51195;BME280;37259;49.972;19.850;2023-04-24T05:32:41;97710;;;12.2;60.5
51195;BME280;37259;49.972;19.850;2023-04-24T05:33:42;97710;;;12.3;60.3
51195;BME280;37259;49.972;19.850;2023-04-24T05:34:41;97710;;;12.3;60.3
51195;BME280;37259;49.972;19.850;2023-04-24T05:35:41;97710;;;12.4;60
51195;BME280;37259;49.972;19.850;2023-04-24T05:36:41;97710;;;12.4;60
51195;BME280;37259;49.972;19.850;2023-04-24T05:37:41;97710;;;12.6;59.5
51195;BME280;37259;49.972;19.850;2023-04-24T05:38:41;97710;;;12.6;59.4
51195;BME280;37259;49.972;19.850;2023-04-24T05:39:41;97710;;;12.6;59.4
51195;BME280;37259;49.972;19.850;2023-04-24T05:40:41;97710;;;12.8;58.4
51195;BME280;37259;49.972;19.850;2023-04-24T05:41:41;97710;;;12.9;58.4